sensor_id;sensor_type;location;lat;lon;timestamp;temperature;humidity
21104;DHT22;10710;53.398;-1.514;2022-11-02T00:00:55;10.50;99.90
21104;DHT22;10710;53.398;-1.514;2022-11-02T00:03:21;10.50;99.90
21104;DHT22;10710;53.398;-1.514;2022-11-02T00:05:47;10.50;99.90
21104;DHT22;10710;53.398;-1.514;2022-11-02T00:08:13;10.50;99.90
21104;DHT22;10710;53.398;-1.514;2022-11-02T00:10:39;10.60;99.90
21104;DHT22;10710;53.398;-1.514;2022-11-02T00:13:05;10.60;99.90
21104;DHT22;10710;53.398;-1.514;2022-11-02T00:15:33;10.50;99.90
21104;DHT22;10710;53.398;-1.514;2022-11-02T00:18:18;10.70;99.90
21104;DHT22;10710;53.398;-1.514;2022-11-02T00:20:44;10.70;99.90
21104;DHT22;10710;53.398;-1.514;2022-11-02T00:23:11;10.70;99.90
21104;DHT22;10710;53.398;-1.514;2022-11-02T00:25:41;10.70;99.90
21104;DHT22;10710;53.398;-1.514;2022-11-02T00:28:09;10.60;99.90
21104;DHT22;10710;53.398;-1.514;2022-11-02T00:30:35;10.50;99.90
21104;DHT22;10710;53.398;-1.514;2022-11-02T00:33:01;10.50;99.90
21104;DHT22;10710;53.398;-1.514;2022-11-02T00:35:28;10.40;99.90
21104;DHT22;10710;53.398;-1.514;2022-11-02T00:37:55;10.30;99.90
21104;DHT22;10710;53.398;-1.514;2022-11-02T00:40:21;10.30;99.90
21104;DHT22;10710;53.398;-1.514;2022-11-02T00:42:47;10.30;99.90
21104;DHT22;10710;53.398;-1.514;2022-11-02T00:45:12;10.20;99.90
21104;DHT22;10710;53.398;-1.514;2022-11-02T00:47:38;10.10;99.90
21104;DHT22;10710;53.398;-1.514;2022-11-02T00:50:04;10.00;99.90
21104;DHT22;10710;53.398;-1.514;2022-11-02T00:52:30;10.00;99.90
21104;DHT22;10710;53.398;-1.514;2022-11-02T00:54:56;10.00;99.90
21104;DHT22;10710;53.398;-1.514;2022-11-02T00:57:22;10.00;99.90
21104;DHT22;10710;53.398;-1.514;2022-11-02T00:59:48;10.00;99.90
21104;DHT22;10710;53.398;-1.514;2022-11-02T01:02:14;10.00;99.90
21104;DHT22;10710;53.398;-1.514;2022-11-02T01:04:40;10.00;99.90
21104;DHT22;10710;53.398;-1.514;2022-11-02T01:07:06;10.00;99.90
21104;DHT22;10710;53.398;-1.514;2022-11-02T01:09:32;9.90;99.90
21104;DHT22;10710;53.398;-1.514;2022-11-02T01:11:59;10.00;99.90
21104;DHT22;10710;53.398;-1.514;2022-11-02T01:14:26;9.90;99.90
21104;DHT22;10710;53.398;-1.514;2022-11-02T01:16:51;9.90;99.90
21104;DHT22;10710;53.398;-1.514;2022-11-02T01:19:17;9.90;99.90
21104;DHT22;10710;53.398;-1.514;2022-11-02T01:21:43;9.80;99.90
21104;DHT22;10710;53.398;-1.514;2022-11-02T01:24:09;9.90;99.90
21104;DHT22;10710;53.398;-1.514;2022-11-02T01:26:35;10.00;99.90
21104;DHT22;10710;53.398;-1.514;2022-11-02T01:29:01;10.00;99.90
21104;DHT22;10710;53.398;-1.514;2022-11-02T01:31:46;9.90;99.90
21104;DHT22;10710;53.398;-1.514;2022-11-02T01:34:13;10.10;99.90
21104;DHT22;10710;53.398;-1.514;2022-11-02T01:36:39;10.00;99.90
21104;DHT22;10710;53.398;-1.514;2022-11-02T01:39:05;10.10;99.90
21104;DHT22;10710;53.398;-1.514;2022-11-02T01:41:32;10.10;99.90
21104;DHT22;10710;53.398;-1.514;2022-11-02T01:44:00;10.10;99.90
21104;DHT22;10710;53.398;-1.514;2022-11-02T01:46:41;10.00;99.90
21104;DHT22;10710;53.398;-1.514;2022-11-02T01:49:12;9.90;99.90
21104;DHT22;10710;53.398;-1.514;2022-11-02T01:52:07;9.90;99.90
21104;DHT22;10710;53.398;-1.514;2022-11-02T01:55:00;9.80;99.90
21104;DHT22;10710;53.398;-1.514;2022-11-02T01:57:27;9.70;99.90
21104;DHT22;10710;53.398;-1.514;2022-11-02T02:00:07;9.80;99.90
21104;DHT22;10710;53.398;-1.514;2022-11-02T02:02:37;9.80;99.90
21104;DHT22;10710;53.398;-1.514;2022-11-02T02:05:05;9.90;99.90
21104;DHT22;10710;53.398;-1.514;2022-11-02T02:07:34;10.00;99.90
21104;DHT22;10710;53.398;-1.514;2022-11-02T02:10:01;10.00;99.90
21104;DHT22;10710;53.398;-1.514;2022-11-02T02:12:27;10.00;99.90
21104;DHT22;10710;53.398;-1.514;2022-11-02T02:14:54;10.00;99.90
21104;DHT22;10710;53.398;-1.514;2022-11-02T02:20:06;10.00;99.90
21104;DHT22;10710;53.398;-1.514;2022-11-02T02:29:00;10.00;99.90
21104;DHT22;10710;53.398;-1.514;2022-11-02T02:31:37;10.00;99.90
21104;DHT22;10710;53.398;-1.514;2022-11-02T02:34:17;9.90;99.90
21104;DHT22;10710;53.398;-1.514;2022-11-02T02:41:59;9.90;99.90
21104;DHT22;10710;53.398;-1.514;2022-11-02T02:44:32;9.90;99.90
21104;DHT22;10710;53.398;-1.514;2022-11-02T02:47:03;9.80;99.90
21104;DHT22;10710;53.398;-1.514;2022-11-02T02:49:39;9.80;99.90
21104;DHT22;10710;53.398;-1.514;2022-11-02T02:52:07;9.80;99.90
21104;DHT22;10710;53.398;-1.514;2022-11-02T02:54:37;9.70;99.90
21104;DHT22;10710;53.398;-1.514;2022-11-02T02:57:10;9.70;99.90
21104;DHT22;10710;53.398;-1.514;2022-11-02T02:59:41;9.70;99.90
21104;DHT22;10710;53.398;-1.514;2022-11-02T03:02:29;9.60;99.90
21104;DHT22;10710;53.398;-1.514;2022-11-02T03:04:59;9.60;99.90
21104;DHT22;10710;53.398;-1.514;2022-11-02T03:07:35;9.60;99.90
21104;DHT22;10710;53.398;-1.514;2022-11-02T03:10:20;9.60;99.90
21104;DHT22;10710;53.398;-1.514;2022-11-02T03:13:09;9.50;99.90
21104;DHT22;10710;53.398;-1.514;2022-11-02T03:15:42;9.50;99.90
21104;DHT22;10710;53.398;-1.514;2022-11-02T03:23:47;9.40;99.90
21104;DHT22;10710;53.398;-1.514;2022-11-02T03:26:29;9.50;99.90
21104;DHT22;10710;53.398;-1.514;2022-11-02T03:29:13;9.40;99.90
21104;DHT22;10710;53.398;-1.514;2022-11-02T03:34:40;9.40;99.90
21104;DHT22;10710;53.398;-1.514;2022-11-02T03:39:47;9.40;99.90
21104;DHT22;10710;53.398;-1.514;2022-11-02T03:42:18;9.40;99.90
21104;DHT22;10710;53.398;-1.514;2022-11-02T03:44:46;9.30;99.90
21104;DHT22;10710;53.398;-1.514;2022-11-02T03:47:16;9.40;99.90
21104;DHT22;10710;53.398;-1.514;2022-11-02T03:49:44;9.40;99.90
21104;DHT22;10710;53.398;-1.514;2022-11-02T03:52:17;9.30;99.90
21104;DHT22;10710;53.398;-1.514;2022-11-02T03:54:56;9.30;99.90
21104;DHT22;10710;53.398;-1.514;2022-11-02T03:57:29;9.30;99.90
21104;DHT22;10710;53.398;-1.514;2022-11-02T04:00:13;9.40;99.90
21104;DHT22;10710;53.398;-1.514;2022-11-02T04:02:43;9.40;99.90
21104;DHT22;10710;53.398;-1.514;2022-11-02T04:05:09;9.40;99.90
21104;DHT22;10710;53.398;-1.514;2022-11-02T04:07:37;9.40;99.90
21104;DHT22;10710;53.398;-1.514;2022-11-02T04:10:22;9.50;99.90
21104;DHT22;10710;53.398;-1.514;2022-11-02T04:12:57;9.50;99.90
21104;DHT22;10710;53.398;-1.514;2022-11-02T04:15:41;9.50;99.90
21104;DHT22;10710;53.398;-1.514;2022-11-02T04:18:07;9.50;99.90
21104;DHT22;10710;53.398;-1.514;2022-11-02T04:20:52;9.40;99.90
21104;DHT22;10710;53.398;-1.514;2022-11-02T04:23:18;9.30;99.90
21104;DHT22;10710;53.398;-1.514;2022-11-02T04:26:03;9.30;99.90
21104;DHT22;10710;53.398;-1.514;2022-11-02T04:28:29;9.30;99.90
21104;DHT22;10710;53.398;-1.514;2022-11-02T04:30:57;9.20;99.90
21104;DHT22;10710;53.398;-1.514;2022-11-02T04:33:24;9.20;99.90
21104;DHT22;10710;53.398;-1.514;2022-11-02T04:36:05;9.20;99.90
21104;DHT22;10710;53.398;-1.514;2022-11-02T04:38:32;9.20;99.90
21104;DHT22;10710;53.398;-1.514;2022-11-02T04:41:15;9.10;99.90
21104;DHT22;10710;53.398;-1.514;2022-11-02T04:44:00;9.10;99.90
21104;DHT22;10710;53.398;-1.514;2022-11-02T04:46:28;9.10;99.90
21104;DHT22;10710;53.398;-1.514;2022-11-02T04:48:54;9.10;99.90
21104;DHT22;10710;53.398;-1.514;2022-11-02T04:51:21;9.10;99.90
21104;DHT22;10710;53.398;-1.514;2022-11-02T04:53:49;9.00;99.90
21104;DHT22;10710;53.398;-1.514;2022-11-02T04:56:15;9.00;99.90
21104;DHT22;10710;53.398;-1.514;2022-11-02T04:58:41;9.00;99.90
21104;DHT22;10710;53.398;-1.514;2022-11-02T05:01:12;9.00;99.90
21104;DHT22;10710;53.398;-1.514;2022-11-02T05:03:39;8.90;99.90
21104;DHT22;10710;53.398;-1.514;2022-11-02T05:06:05;8.90;99.90
21104;DHT22;10710;53.398;-1.514;2022-11-02T05:08:31;8.90;99.90
21104;DHT22;10710;53.398;-1.514;2022-11-02T05:10:58;8.80;99.90
21104;DHT22;10710;53.398;-1.514;2022-11-02T05:13:25;8.80;99.90
21104;DHT22;10710;53.398;-1.514;2022-11-02T05:15:54;8.70;99.90
21104;DHT22;10710;53.398;-1.514;2022-11-02T05:18:20;8.70;99.90
21104;DHT22;10710;53.398;-1.514;2022-11-02T05:20:54;8.50;99.90
21104;DHT22;10710;53.398;-1.514;2022-11-02T05:23:20;8.60;99.90
21104;DHT22;10710;53.398;-1.514;2022-11-02T05:26:03;8.60;99.90
21104;DHT22;10710;53.398;-1.514;2022-11-02T05:28:30;8.50;99.90
21104;DHT22;10710;53.398;-1.514;2022-11-02T05:30:58;8.60;99.90
21104;DHT22;10710;53.398;-1.514;2022-11-02T05:33:27;8.50;99.90
21104;DHT22;10710;53.398;-1.514;2022-11-02T05:35:58;8.50;99.90
21104;DHT22;10710;53.398;-1.514;2022-11-02T05:38:25;8.50;99.90
21104;DHT22;10710;53.398;-1.514;2022-11-02T05:40:58;8.50;99.90
21104;DHT22;10710;53.398;-1.514;2022-11-02T05:43:24;8.50;99.90
21104;DHT22;10710;53.398;-1.514;2022-11-02T05:45:55;8.50;99.90
21104;DHT22;10710;53.398;-1.514;2022-11-02T05:48:22;8.50;99.90
21104;DHT22;10710;53.398;-1.514;2022-11-02T05:50:48;8.50;99.90
21104;DHT22;10710;53.398;-1.514;2022-11-02T05:53:14;8.50;99.90
21104;DHT22;10710;53.398;-1.514;2022-11-02T05:55:40;8.40;99.90
21104;DHT22;10710;53.398;-1.514;2022-11-02T05:58:06;8.40;99.90
21104;DHT22;10710;53.398;-1.514;2022-11-02T06:00:32;8.40;99.90
21104;DHT22;10710;53.398;-1.514;2022-11-02T06:02:58;8.40;99.90
21104;DHT22;10710;53.398;-1.514;2022-11-02T06:05:25;8.30;99.90
21104;DHT22;10710;53.398;-1.514;2022-11-02T06:07:50;8.30;99.90
21104;DHT22;10710;53.398;-1.514;2022-11-02T06:10:17;8.30;99.90
21104;DHT22;10710;53.398;-1.514;2022-11-02T06:12:43;8.30;99.90
21104;DHT22;10710;53.398;-1.514;2022-11-02T06:15:09;8.20;99.90
21104;DHT22;10710;53.398;-1.514;2022-11-02T06:17:39;8.20;99.90
21104;DHT22;10710;53.398;-1.514;2022-11-02T06:20:06;8.20;99.90
21104;DHT22;10710;53.398;-1.514;2022-11-02T06:22:39;8.20;99.90
21104;DHT22;10710;53.398;-1.514;2022-11-02T06:25:06;8.20;99.90
21104;DHT22;10710;53.398;-1.514;2022-11-02T06:27:32;8.20;99.90
21104;DHT22;10710;53.398;-1.514;2022-11-02T06:29:57;8.20;99.90
21104;DHT22;10710;53.398;-1.514;2022-11-02T06:32:24;8.10;99.90
21104;DHT22;10710;53.398;-1.514;2022-11-02T06:34:49;8.10;99.90
21104;DHT22;10710;53.398;-1.514;2022-11-02T06:37:15;8.10;99.90
21104;DHT22;10710;53.398;-1.514;2022-11-02T06:39:41;8.10;99.90
21104;DHT22;10710;53.398;-1.514;2022-11-02T06:42:07;8.10;99.90
21104;DHT22;10710;53.398;-1.514;2022-11-02T06:44:33;8.10;99.90
21104;DHT22;10710;53.398;-1.514;2022-11-02T06:46:59;8.00;99.90
21104;DHT22;10710;53.398;-1.514;2022-11-02T06:49:24;8.00;99.90
21104;DHT22;10710;53.398;-1.514;2022-11-02T06:51:51;8.00;99.90
21104;DHT22;10710;53.398;-1.514;2022-11-02T06:54:16;8.00;99.90
21104;DHT22;10710;53.398;-1.514;2022-11-02T06:56:43;7.90;99.90
21104;DHT22;10710;53.398;-1.514;2022-11-02T06:59:08;8.00;99.90
21104;DHT22;10710;53.398;-1.514;2022-11-02T07:01:34;7.90;99.90
21104;DHT22;10710;53.398;-1.514;2022-11-02T07:04:01;7.90;99.90
21104;DHT22;10710;53.398;-1.514;2022-11-02T07:06:28;7.90;99.90
21104;DHT22;10710;53.398;-1.514;2022-11-02T07:08:54;8.00;99.90
21104;DHT22;10710;53.398;-1.514;2022-11-02T07:11:20;8.00;99.90
21104;DHT22;10710;53.398;-1.514;2022-11-02T07:13:47;8.00;99.90
21104;DHT22;10710;53.398;-1.514;2022-11-02T07:16:13;8.00;99.90
21104;DHT22;10710;53.398;-1.514;2022-11-02T07:18:40;8.00;99.90
21104;DHT22;10710;53.398;-1.514;2022-11-02T07:21:07;8.00;99.90
21104;DHT22;10710;53.398;-1.514;2022-11-02T07:23:35;8.00;99.90
21104;DHT22;10710;53.398;-1.514;2022-11-02T07:26:01;7.90;99.90
21104;DHT22;10710;53.398;-1.514;2022-11-02T07:28:27;8.10;99.90
21104;DHT22;10710;53.398;-1.514;2022-11-02T07:30:53;8.10;99.90
21104;DHT22;10710;53.398;-1.514;2022-11-02T07:33:20;8.10;99.90
21104;DHT22;10710;53.398;-1.514;2022-11-02T07:35:46;8.20;99.90
21104;DHT22;10710;53.398;-1.514;2022-11-02T07:38:12;8.30;99.90
21104;DHT22;10710;53.398;-1.514;2022-11-02T07:40:38;8.30;99.90
21104;DHT22;10710;53.398;-1.514;2022-11-02T07:43:05;8.40;99.90
21104;DHT22;10710;53.398;-1.514;2022-11-02T07:45:31;8.40;99.90
21104;DHT22;10710;53.398;-1.514;2022-11-02T07:47:57;8.40;99.90
21104;DHT22;10710;53.398;-1.514;2022-11-02T07:50:24;8.30;99.90
21104;DHT22;10710;53.398;-1.514;2022-11-02T07:53:00;8.30;99.90
21104;DHT22;10710;53.398;-1.514;2022-11-02T07:55:28;8.30;99.90
21104;DHT22;10710;53.398;-1.514;2022-11-02T07:58:04;8.30;99.90
21104;DHT22;10710;53.398;-1.514;2022-11-02T08:00:34;8.30;99.90
21104;DHT22;10710;53.398;-1.514;2022-11-02T08:03:02;8.30;99.90
21104;DHT22;10710;53.398;-1.514;2022-11-02T08:05:29;8.30;99.90
21104;DHT22;10710;53.398;-1.514;2022-11-02T08:07:57;8.30;99.90
21104;DHT22;10710;53.398;-1.514;2022-11-02T08:10:23;8.30;99.90
21104;DHT22;10710;53.398;-1.514;2022-11-02T08:12:49;8.30;99.90
21104;DHT22;10710;53.398;-1.514;2022-11-02T08:15:15;8.40;99.90
21104;DHT22;10710;53.398;-1.514;2022-11-02T08:17:41;8.50;99.90
21104;DHT22;10710;53.398;-1.514;2022-11-02T08:20:07;8.60;99.90
21104;DHT22;10710;53.398;-1.514;2022-11-02T08:22:37;8.60;99.90
21104;DHT22;10710;53.398;-1.514;2022-11-02T08:25:05;8.70;99.90
21104;DHT22;10710;53.398;-1.514;2022-11-02T08:27:31;8.70;99.90
21104;DHT22;10710;53.398;-1.514;2022-11-02T08:29:57;8.80;99.90
21104;DHT22;10710;53.398;-1.514;2022-11-02T08:32:22;8.80;99.90
21104;DHT22;10710;53.398;-1.514;2022-11-02T08:34:49;8.80;99.90
21104;DHT22;10710;53.398;-1.514;2022-11-02T08:37:14;8.90;99.90
21104;DHT22;10710;53.398;-1.514;2022-11-02T08:39:40;9.00;99.90
21104;DHT22;10710;53.398;-1.514;2022-11-02T08:42:07;9.00;99.90
21104;DHT22;10710;53.398;-1.514;2022-11-02T08:44:33;9.10;99.90
21104;DHT22;10710;53.398;-1.514;2022-11-02T08:46:58;9.20;99.90
21104;DHT22;10710;53.398;-1.514;2022-11-02T08:49:24;9.30;99.90
21104;DHT22;10710;53.398;-1.514;2022-11-02T08:51:50;9.40;99.90
21104;DHT22;10710;53.398;-1.514;2022-11-02T08:54:16;9.60;99.90
21104;DHT22;10710;53.398;-1.514;2022-11-02T08:56:42;9.70;99.90
21104;DHT22;10710;53.398;-1.514;2022-11-02T08:59:08;9.70;99.90
21104;DHT22;10710;53.398;-1.514;2022-11-02T09:01:34;9.80;99.90
21104;DHT22;10710;53.398;-1.514;2022-11-02T09:03:59;9.90;99.90
21104;DHT22;10710;53.398;-1.514;2022-11-02T09:06:25;10.00;99.90
21104;DHT22;10710;53.398;-1.514;2022-11-02T09:08:51;10.00;99.90
21104;DHT22;10710;53.398;-1.514;2022-11-02T09:11:17;10.10;99.90
21104;DHT22;10710;53.398;-1.514;2022-11-02T09:13:43;10.10;99.90
21104;DHT22;10710;53.398;-1.514;2022-11-02T09:16:09;10.10;99.90
21104;DHT22;10710;53.398;-1.514;2022-11-02T09:18:36;10.20;99.90
21104;DHT22;10710;53.398;-1.514;2022-11-02T09:21:03;10.30;99.90
21104;DHT22;10710;53.398;-1.514;2022-11-02T09:23:29;10.40;99.90
21104;DHT22;10710;53.398;-1.514;2022-11-02T09:25:56;10.50;99.90
21104;DHT22;10710;53.398;-1.514;2022-11-02T09:28:22;10.60;99.90
21104;DHT22;10710;53.398;-1.514;2022-11-02T09:30:48;10.60;99.90
21104;DHT22;10710;53.398;-1.514;2022-11-02T09:33:14;10.70;99.90
21104;DHT22;10710;53.398;-1.514;2022-11-02T09:35:42;10.70;99.90
21104;DHT22;10710;53.398;-1.514;2022-11-02T09:38:09;10.80;99.90
21104;DHT22;10710;53.398;-1.514;2022-11-02T09:48:30;11.10;99.90
21104;DHT22;10710;53.398;-1.514;2022-11-02T09:56:12;11.20;99.90
21104;DHT22;10710;53.398;-1.514;2022-11-02T09:58:42;11.30;99.90
21104;DHT22;10710;53.398;-1.514;2022-11-02T10:06:27;11.40;99.90
21104;DHT22;10710;53.398;-1.514;2022-11-02T10:09:12;11.40;99.90
21104;DHT22;10710;53.398;-1.514;2022-11-02T10:12:08;11.50;99.90
21104;DHT22;10710;53.398;-1.514;2022-11-02T10:14:41;11.60;99.90
21104;DHT22;10710;53.398;-1.514;2022-11-02T10:17:29;11.50;99.90
21104;DHT22;10710;53.398;-1.514;2022-11-02T10:20:01;11.60;99.90
21104;DHT22;10710;53.398;-1.514;2022-11-02T10:22:32;11.70;99.90
21104;DHT22;10710;53.398;-1.514;2022-11-02T10:25:05;11.80;99.90
21104;DHT22;10710;53.398;-1.514;2022-11-02T10:27:36;11.90;99.90
21104;DHT22;10710;53.398;-1.514;2022-11-02T10:30:09;12.10;99.90
21104;DHT22;10710;53.398;-1.514;2022-11-02T10:32:38;12.10;99.90
21104;DHT22;10710;53.398;-1.514;2022-11-02T10:35:26;12.20;99.90
21104;DHT22;10710;53.398;-1.514;2022-11-02T10:38:20;12.20;99.90
21104;DHT22;10710;53.398;-1.514;2022-11-02T10:47:14;12.40;99.90
21104;DHT22;10710;53.398;-1.514;2022-11-02T10:52:11;12.30;99.90
21104;DHT22;10710;53.398;-1.514;2022-11-02T10:54:39;12.30;99.90
21104;DHT22;10710;53.398;-1.514;2022-11-02T10:57:13;12.50;99.90
21104;DHT22;10710;53.398;-1.514;2022-11-02T10:59:39;12.50;99.90
21104;DHT22;10710;53.398;-1.514;2022-11-02T11:02:12;12.50;99.90
21104;DHT22;10710;53.398;-1.514;2022-11-02T11:04:39;12.50;99.90
21104;DHT22;10710;53.398;-1.514;2022-11-02T11:07:26;12.40;99.90
21104;DHT22;10710;53.398;-1.514;2022-11-02T11:09:54;12.40;99.90
21104;DHT22;10710;53.398;-1.514;2022-11-02T11:12:29;12.50;99.90
21104;DHT22;10710;53.398;-1.514;2022-11-02T11:15:00;12.60;99.90
21104;DHT22;10710;53.398;-1.514;2022-11-02T11:17:34;12.50;99.90
21104;DHT22;10710;53.398;-1.514;2022-11-02T11:20:02;12.60;99.90
21104;DHT22;10710;53.398;-1.514;2022-11-02T11:22:35;12.50;99.90
21104;DHT22;10710;53.398;-1.514;2022-11-02T11:25:21;12.50;99.90
21104;DHT22;10710;53.398;-1.514;2022-11-02T11:27:51;12.60;99.90
21104;DHT22;10710;53.398;-1.514;2022-11-02T11:30:31;12.60;99.90
21104;DHT22;10710;53.398;-1.514;2022-11-02T11:33:00;12.70;99.90
21104;DHT22;10710;53.398;-1.514;2022-11-02T11:35:39;12.70;99.90
21104;DHT22;10710;53.398;-1.514;2022-11-02T11:38:14;12.70;99.90
21104;DHT22;10710;53.398;-1.514;2022-11-02T11:40:45;12.70;99.90
21104;DHT22;10710;53.398;-1.514;2022-11-02T11:43:16;12.60;99.90
21104;DHT22;10710;53.398;-1.514;2022-11-02T11:46:03;12.60;99.90
21104;DHT22;10710;53.398;-1.514;2022-11-02T11:48:49;12.60;99.90
21104;DHT22;10710;53.398;-1.514;2022-11-02T11:51:26;12.70;99.90
21104;DHT22;10710;53.398;-1.514;2022-11-02T11:54:31;12.80;99.90
21104;DHT22;10710;53.398;-1.514;2022-11-02T11:57:22;12.80;99.90
21104;DHT22;10710;53.398;-1.514;2022-11-02T11:59:50;13.00;99.90
21104;DHT22;10710;53.398;-1.514;2022-11-02T12:02:22;13.10;99.90
21104;DHT22;10710;53.398;-1.514;2022-11-02T12:04:50;13.00;99.90
21104;DHT22;10710;53.398;-1.514;2022-11-02T12:07:32;13.10;99.90
21104;DHT22;10710;53.398;-1.514;2022-11-02T12:13:04;13.00;99.90
21104;DHT22;10710;53.398;-1.514;2022-11-02T12:19:17;13.00;99.90
21104;DHT22;10710;53.398;-1.514;2022-11-02T12:27:28;13.20;99.90
21104;DHT22;10710;53.398;-1.514;2022-11-02T12:38:34;13.50;99.90
21104;DHT22;10710;53.398;-1.514;2022-11-02T12:41:07;13.50;99.90
21104;DHT22;10710;53.398;-1.514;2022-11-02T12:43:40;13.60;99.90
21104;DHT22;10710;53.398;-1.514;2022-11-02T12:51:51;13.70;99.90
21104;DHT22;10710;53.398;-1.514;2022-11-02T12:54:29;13.80;99.90
21104;DHT22;10710;53.398;-1.514;2022-11-02T12:57:01;13.90;99.90
21104;DHT22;10710;53.398;-1.514;2022-11-02T12:59:31;13.90;99.90
21104;DHT22;10710;53.398;-1.514;2022-11-02T13:02:09;13.90;99.90
21104;DHT22;10710;53.398;-1.514;2022-11-02T13:07:15;14.00;99.90
21104;DHT22;10710;53.398;-1.514;2022-11-02T13:10:03;14.10;99.90
21104;DHT22;10710;53.398;-1.514;2022-11-02T13:12:32;14.30;99.90
21104;DHT22;10710;53.398;-1.514;2022-11-02T13:15:02;14.50;99.90
21104;DHT22;10710;53.398;-1.514;2022-11-02T13:20:38;14.50;99.90
21104;DHT22;10710;53.398;-1.514;2022-11-02T13:26:10;14.50;99.90
21104;DHT22;10710;53.398;-1.514;2022-11-02T13:28:46;14.40;99.90
21104;DHT22;10710;53.398;-1.514;2022-11-02T13:31:28;14.50;99.90
21104;DHT22;10710;53.398;-1.514;2022-11-02T13:33:59;14.50;99.90
21104;DHT22;10710;53.398;-1.514;2022-11-02T13:36:27;14.40;99.90
21104;DHT22;10710;53.398;-1.514;2022-11-02T13:39:04;14.40;99.90
21104;DHT22;10710;53.398;-1.514;2022-11-02T13:44:32;14.40;99.90
21104;DHT22;10710;53.398;-1.514;2022-11-02T13:49:39;14.40;99.90
21104;DHT22;10710;53.398;-1.514;2022-11-02T13:52:14;14.50;99.90
21104;DHT22;10710;53.398;-1.514;2022-11-02T13:54:49;14.50;99.90
21104;DHT22;10710;53.398;-1.514;2022-11-02T13:57:38;14.60;99.90
21104;DHT22;10710;53.398;-1.514;2022-11-02T14:03:06;14.80;99.90
21104;DHT22;10710;53.398;-1.514;2022-11-02T14:05:45;14.80;99.90
21104;DHT22;10710;53.398;-1.514;2022-11-02T14:08:32;14.90;99.90
21104;DHT22;10710;53.398;-1.514;2022-11-02T14:11:23;14.90;99.90
21104;DHT22;10710;53.398;-1.514;2022-11-02T14:21:45;14.80;99.90
21104;DHT22;10710;53.398;-1.514;2022-11-02T14:42:55;14.70;99.90
21104;DHT22;10710;53.398;-1.514;2022-11-02T14:45:30;14.70;99.90
21104;DHT22;10710;53.398;-1.514;2022-11-02T14:48:00;14.70;99.90
21104;DHT22;10710;53.398;-1.514;2022-11-02T14:50:28;14.80;99.90
21104;DHT22;10710;53.398;-1.514;2022-11-02T14:55:33;14.80;99.90
21104;DHT22;10710;53.398;-1.514;2022-11-02T15:00:31;14.80;99.90
21104;DHT22;10710;53.398;-1.514;2022-11-02T15:03:05;14.80;99.90
21104;DHT22;10710;53.398;-1.514;2022-11-02T15:05:33;14.70;99.90
21104;DHT22;10710;53.398;-1.514;2022-11-02T15:08:20;14.70;99.90
21104;DHT22;10710;53.398;-1.514;2022-11-02T15:10:47;14.70;99.90
21104;DHT22;10710;53.398;-1.514;2022-11-02T15:23:48;14.30;99.90
21104;DHT22;10710;53.398;-1.514;2022-11-02T15:28:54;14.20;99.90
21104;DHT22;10710;53.398;-1.514;2022-11-02T15:31:21;14.20;99.90
21104;DHT22;10710;53.398;-1.514;2022-11-02T15:33:51;14.20;99.90
21104;DHT22;10710;53.398;-1.514;2022-11-02T15:36:27;14.20;99.90
21104;DHT22;10710;53.398;-1.514;2022-11-02T15:38:54;14.20;99.90
21104;DHT22;10710;53.398;-1.514;2022-11-02T15:56:45;14.20;99.90
21104;DHT22;10710;53.398;-1.514;2022-11-02T16:04:34;14.30;99.90
21104;DHT22;10710;53.398;-1.514;2022-11-02T16:07:06;14.30;99.90
21104;DHT22;10710;53.398;-1.514;2022-11-02T16:09:37;14.30;99.90
21104;DHT22;10710;53.398;-1.514;2022-11-02T16:12:15;14.30;99.90
21104;DHT22;10710;53.398;-1.514;2022-11-02T16:14:42;14.30;99.90
21104;DHT22;10710;53.398;-1.514;2022-11-02T16:17:28;14.40;99.90
21104;DHT22;10710;53.398;-1.514;2022-11-02T16:22:35;14.50;99.90
21104;DHT22;10710;53.398;-1.514;2022-11-02T16:25:08;14.40;99.90
21104;DHT22;10710;53.398;-1.514;2022-11-02T16:27:38;14.50;99.90
21104;DHT22;10710;53.398;-1.514;2022-11-02T16:30:05;14.40;99.90
21104;DHT22;10710;53.398;-1.514;2022-11-02T16:32:31;14.40;99.90
21104;DHT22;10710;53.398;-1.514;2022-11-02T16:34:57;14.40;99.90
21104;DHT22;10710;53.398;-1.514;2022-11-02T16:37:26;14.40;99.90
21104;DHT22;10710;53.398;-1.514;2022-11-02T16:39:52;14.40;99.90
21104;DHT22;10710;53.398;-1.514;2022-11-02T16:42:21;14.40;99.90
21104;DHT22;10710;53.398;-1.514;2022-11-02T16:44:57;14.40;99.90
21104;DHT22;10710;53.398;-1.514;2022-11-02T16:47:37;14.50;99.90
21104;DHT22;10710;53.398;-1.514;2022-11-02T16:50:17;14.40;99.90
21104;DHT22;10710;53.398;-1.514;2022-11-02T16:52:58;14.40;99.90
21104;DHT22;10710;53.398;-1.514;2022-11-02T16:55:42;14.40;99.90
21104;DHT22;10710;53.398;-1.514;2022-11-02T16:58:15;14.30;99.90
21104;DHT22;10710;53.398;-1.514;2022-11-02T17:00:58;14.20;99.90
21104;DHT22;10710;53.398;-1.514;2022-11-02T17:03:29;14.10;99.90
21104;DHT22;10710;53.398;-1.514;2022-11-02T17:05:57;14.00;99.90
21104;DHT22;10710;53.398;-1.514;2022-11-02T17:08:32;13.90;99.90
21104;DHT22;10710;53.398;-1.514;2022-11-02T17:11:00;13.90;99.90
21104;DHT22;10710;53.398;-1.514;2022-11-02T17:13:31;13.80;99.90
21104;DHT22;10710;53.398;-1.514;2022-11-02T17:16:09;13.80;99.90
21104;DHT22;10710;53.398;-1.514;2022-11-02T17:18:35;13.60;99.90
21104;DHT22;10710;53.398;-1.514;2022-11-02T17:21:34;13.60;99.90
21104;DHT22;10710;53.398;-1.514;2022-11-02T17:24:30;13.50;99.90
21104;DHT22;10710;53.398;-1.514;2022-11-02T17:27:15;13.40;99.90
21104;DHT22;10710;53.398;-1.514;2022-11-02T17:29:41;13.30;99.90
21104;DHT22;10710;53.398;-1.514;2022-11-02T17:32:15;13.30;99.90
21104;DHT22;10710;53.398;-1.514;2022-11-02T17:34:56;13.20;99.90
21104;DHT22;10710;53.398;-1.514;2022-11-02T17:37:23;13.10;99.90
21104;DHT22;10710;53.398;-1.514;2022-11-02T17:39:50;13.10;99.90
21104;DHT22;10710;53.398;-1.514;2022-11-02T17:42:16;13.10;99.90
21104;DHT22;10710;53.398;-1.514;2022-11-02T17:47:56;13.10;99.90
21104;DHT22;10710;53.398;-1.514;2022-11-02T17:50:24;13.10;99.90
21104;DHT22;10710;53.398;-1.514;2022-11-02T17:52:52;13.10;99.90
21104;DHT22;10710;53.398;-1.514;2022-11-02T17:55:24;13.20;99.90
21104;DHT22;10710;53.398;-1.514;2022-11-02T17:57:53;13.10;99.90
21104;DHT22;10710;53.398;-1.514;2022-11-02T18:00:19;13.10;99.90
21104;DHT22;10710;53.398;-1.514;2022-11-02T18:02:53;13.10;99.90
21104;DHT22;10710;53.398;-1.514;2022-11-02T18:05:26;13.10;99.90
21104;DHT22;10710;53.398;-1.514;2022-11-02T18:07:53;13.10;99.90
21104;DHT22;10710;53.398;-1.514;2022-11-02T18:10:21;13.10;99.90
21104;DHT22;10710;53.398;-1.514;2022-11-02T18:12:47;13.10;99.90
21104;DHT22;10710;53.398;-1.514;2022-11-02T18:15:39;13.10;99.90
21104;DHT22;10710;53.398;-1.514;2022-11-02T18:18:06;13.10;99.90
21104;DHT22;10710;53.398;-1.514;2022-11-02T18:20:32;13.10;99.90
21104;DHT22;10710;53.398;-1.514;2022-11-02T18:22:59;13.10;99.90
21104;DHT22;10710;53.398;-1.514;2022-11-02T18:25:27;13.10;99.90
21104;DHT22;10710;53.398;-1.514;2022-11-02T18:27:57;13.10;99.90
21104;DHT22;10710;53.398;-1.514;2022-11-02T18:30:25;13.10;99.90
21104;DHT22;10710;53.398;-1.514;2022-11-02T18:32:51;13.10;99.90